createdAt,value
2018-10-03T00:04:07.292Z,97862.59
2018-10-03T00:09:02.074Z,97855.00
2018-10-03T00:13:57.005Z,97849.73
2018-10-03T00:18:51.791Z,97859.11
2018-10-03T00:23:46.595Z,97865.59
2018-10-03T00:28:41.412Z,97873.38
2018-10-03T00:33:36.206Z,97877.09
2018-10-03T00:38:31.001Z,97867.17
2018-10-03T00:43:32.560Z,97864.19
2018-10-03T00:48:27.370Z,97864.75
2018-10-03T00:53:22.219Z,97876.66
2018-10-03T00:58:16.993Z,97876.73
2018-10-03T01:03:11.785Z,97875.22
2018-10-03T01:08:06.578Z,97868.88
2018-10-03T01:13:01.754Z,97872.81
2018-10-03T01:17:56.517Z,97872.06
2018-10-03T01:22:51.409Z,97865.78
2018-10-03T01:27:46.218Z,97864.09
2018-10-03T01:32:41.075Z,97883.84
2018-10-03T01:37:35.919Z,97883.94
2018-10-03T01:42:30.805Z,97868.13
2018-10-03T01:47:25.581Z,97867.84
2018-10-03T01:52:20.403Z,97871.84
2018-10-03T01:57:15.293Z,97880.12
2018-10-03T02:02:10.207Z,97881.78
2018-10-03T02:07:05.006Z,97884.04
2018-10-03T02:11:59.796Z,97877.84
2018-10-03T02:16:54.573Z,97870.81
2018-10-03T02:21:49.470Z,97866.52
2018-10-03T02:26:44.249Z,97864.47
2018-10-03T02:31:39.129Z,97871.11
2018-10-03T02:36:34.008Z,97875.25
2018-10-03T02:41:28.905Z,97874.41
2018-10-03T02:46:23.807Z,97860.98
2018-10-03T02:51:18.671Z,97861.55
2018-10-03T02:56:13.569Z,97859.50
2018-10-03T03:01:08.456Z,97856.48
2018-10-03T03:06:03.273Z,97852.11
2018-10-03T03:10:58.090Z,97862.02
2018-10-03T03:15:52.897Z,97866.42
2018-10-03T03:20:47.735Z,97864.83
2018-10-03T03:25:42.588Z,97869.61
2018-10-03T03:30:38.087Z,97874.68
2018-10-03T03:35:32.914Z,97872.44
2018-10-03T03:40:28.511Z,97881.72
2018-10-03T03:45:23.329Z,97876.46
2018-10-03T03:50:18.165Z,97887.63
2018-10-03T03:55:13.023Z,97885.91
2018-10-03T04:00:07.885Z,97886.88
2018-10-03T04:05:02.695Z,97898.20
2018-10-03T04:09:57.550Z,97891.35
2018-10-03T04:14:52.334Z,97906.45
2018-10-03T04:19:47.124Z,97901.30
2018-10-03T04:24:41.985Z,97902.42
2018-10-03T04:29:36.872Z,97901.66
2018-10-03T04:34:31.685Z,97919.53
2018-10-03T04:39:26.506Z,97912.97
2018-10-03T04:44:21.335Z,97916.73
2018-10-03T04:49:16.366Z,97894.91
2018-10-03T04:54:11.160Z,97907.45
2018-10-03T04:59:06.319Z,97914.69
2018-10-03T05:04:01.144Z,97915.97
2018-10-03T05:08:55.938Z,97927.66
2018-10-03T05:13:50.774Z,97933.58
2018-10-03T05:18:45.560Z,97931.53
2018-10-03T05:23:40.361Z,97937.88
2018-10-03T05:28:35.156Z,97941.65
2018-10-03T05:33:30.415Z,97945.21
2018-10-03T05:38:25.215Z,97946.89
2018-10-03T05:43:20.001Z,97951.88
2018-10-03T05:48:14.834Z,97953.38
2018-10-03T05:53:09.608Z,97953.55
2018-10-03T05:58:04.440Z,97952.17
2018-10-03T06:02:59.312Z,97965.55
2018-10-03T06:07:54.058Z,97962.94
2018-10-03T06:12:48.875Z,97958.83
2018-10-03T06:17:43.815Z,97960.50
2018-10-03T06:22:38.757Z,97967.45
2018-10-03T06:27:33.531Z,97976.54
2018-10-03T06:32:28.327Z,97978.72
2018-10-03T06:37:24.137Z,97963.81
2018-10-03T06:42:19.042Z,97960.89
2018-10-03T06:47:13.846Z,97969.80
2018-10-03T06:52:08.930Z,97980.03
2018-10-03T06:57:03.873Z,97972.70
2018-10-03T07:01:58.637Z,97972.69
2018-10-03T07:06:53.501Z,97979.14
2018-10-03T07:11:48.348Z,97975.58
2018-10-03T07:16:43.171Z,97977.88
2018-10-03T07:21:38.079Z,97967.38
2018-10-03T07:26:32.922Z,97965.81
2018-10-03T07:31:27.710Z,97985.34
2018-10-03T07:36:22.545Z,97989.87
2018-10-03T07:41:17.337Z,98006.77
2018-10-03T07:46:12.740Z,98011.16
2018-10-03T07:51:07.682Z,98010.09
2018-10-03T07:56:02.566Z,98022.91
2018-10-03T08:00:57.400Z,98020.72
2018-10-03T08:05:52.235Z,98019.95
2018-10-03T08:10:47.068Z,98030.78
2018-10-03T08:15:42.316Z,98023.08
2018-10-03T08:20:37.187Z,98028.98
2018-10-03T08:25:32.017Z,98034.08
2018-10-03T08:30:26.908Z,98036.95
2018-10-03T08:35:22.354Z,98035.45
2018-10-03T08:40:18.234Z,98044.66
2018-10-03T08:45:13.057Z,98035.70
2018-10-03T08:50:10.768Z,98032.70
2018-10-03T08:55:05.653Z,98038.67
2018-10-03T09:00:00.498Z,98045.19
2018-10-03T09:04:55.802Z,98045.32
2018-10-03T09:09:50.661Z,98046.83
2018-10-03T09:14:45.506Z,98036.30
2018-10-03T09:19:40.350Z,98015.61
2018-10-03T09:24:35.185Z,98017.57
2018-10-03T09:29:30.029Z,98028.11
2018-10-03T09:34:24.897Z,98033.28
2018-10-03T09:39:19.751Z,98039.30
2018-10-03T09:44:14.660Z,98041.26
2018-10-03T09:49:09.455Z,98043.14
2018-10-03T09:54:04.627Z,98047.76
2018-10-03T09:58:59.505Z,98059.30
2018-10-03T10:03:54.343Z,98063.52
2018-10-03T10:08:49.225Z,98065.11
2018-10-03T10:13:44.137Z,98064.94
2018-10-03T10:18:38.970Z,98058.19
2018-10-03T10:23:33.847Z,98060.45
2018-10-03T10:28:28.663Z,98062.98
2018-10-03T10:33:23.555Z,98062.41
2018-10-03T10:38:18.360Z,98056.84
2018-10-03T10:43:13.176Z,98057.87
2018-10-03T10:48:08.097Z,98051.56
2018-10-03T10:53:02.931Z,98053.95
2018-10-03T10:57:57.770Z,98053.52
2018-10-03T11:02:52.666Z,98047.36
2018-10-03T11:07:47.497Z,98039.31
2018-10-03T11:12:42.291Z,98031.52
2018-10-03T11:17:38.101Z,98041.41
2018-10-03T11:22:33.441Z,98041.26
2018-10-03T11:27:28.233Z,98029.24
2018-10-03T11:32:23.024Z,98025.19
2018-10-03T11:37:17.967Z,98022.69
2018-10-03T11:42:12.914Z,98021.78
2018-10-03T11:47:07.858Z,98014.45
2018-10-03T11:52:02.673Z,98010.73
2018-10-03T11:56:57.609Z,98013.10
2018-10-03T12:01:52.486Z,98011.52
2018-10-03T12:06:47.418Z,98009.70
2018-10-03T12:11:42.292Z,97999.95
2018-10-03T12:16:38.349Z,98010.00
2018-10-03T12:21:33.168Z,98009.24
2018-10-03T12:26:28.042Z,98006.73
2018-10-03T12:31:22.900Z,97997.39
2018-10-03T12:36:17.821Z,97982.52
2018-10-03T12:41:12.742Z,97987.20
2018-10-03T12:46:07.740Z,97982.28
2018-10-03T12:51:02.617Z,97984.80
2018-10-03T12:55:57.459Z,97982.05
2018-10-03T13:00:52.275Z,97976.77
2018-10-03T13:05:47.214Z,97977.73
2018-10-03T13:10:42.063Z,97982.16
2018-10-03T13:15:36.873Z,97982.20
2018-10-03T13:20:31.702Z,97973.70
2018-10-03T13:25:26.520Z,97974.56
2018-10-03T13:30:21.461Z,97966.76
2018-10-03T13:35:16.291Z,97964.48
2018-10-03T13:40:11.239Z,97965.11
2018-10-03T13:45:06.126Z,97968.81
2018-10-03T13:50:00.919Z,97969.72
2018-10-03T13:54:56.701Z,97963.12
2018-10-03T13:59:51.597Z,97965.73
2018-10-03T14:04:47.462Z,97966.78
2018-10-03T14:09:42.342Z,97963.98
2018-10-03T14:14:37.249Z,97963.00
2018-10-03T14:19:32.110Z,97962.25
2018-10-03T14:24:26.997Z,97966.19
2018-10-03T14:29:23.572Z,97962.48
2018-10-03T14:34:18.581Z,97965.27
2018-10-03T14:39:14.732Z,97964.11
2018-10-03T14:44:09.619Z,97972.48
2018-10-03T14:49:04.433Z,97974.58
2018-10-03T14:53:59.315Z,97973.19
2018-10-03T14:58:54.138Z,97974.28
2018-10-03T15:03:49.097Z,97965.03
2018-10-03T15:08:44.073Z,97966.48
2018-10-03T15:13:39.074Z,97964.66
2018-10-03T15:18:34.794Z,97965.27
2018-10-03T15:23:29.659Z,97965.77
2018-10-03T15:28:24.470Z,97970.09
2018-10-03T15:33:19.286Z,97980.06
2018-10-03T15:38:14.098Z,97981.16
2018-10-03T15:43:10.460Z,97982.34
2018-10-03T15:48:11.927Z,97985.97
2018-10-03T15:53:06.835Z,97987.78
2018-10-03T15:58:01.782Z,97989.55
2018-10-03T16:02:56.613Z,97989.30
2018-10-03T16:07:51.428Z,97996.27
2018-10-03T16:12:46.381Z,97995.30
2018-10-03T16:17:41.249Z,98001.81
2018-10-03T16:22:36.273Z,98004.80
2018-10-03T16:27:31.141Z,98003.56
2018-10-03T16:32:26.021Z,98012.22
2018-10-03T16:37:20.784Z,98013.14
2018-10-03T16:42:15.650Z,98019.24
2018-10-03T16:47:11.088Z,98020.44
2018-10-03T16:52:05.857Z,98024.24
2018-10-03T16:57:00.660Z,98033.80
2018-10-03T17:01:55.856Z,98031.11
2018-10-03T17:06:51.520Z,98032.23
2018-10-03T17:11:46.342Z,98034.03
2018-10-03T17:16:41.254Z,98045.88
2018-10-03T17:21:37.045Z,98039.48
2018-10-03T17:26:31.869Z,98053.70
2018-10-03T17:31:26.682Z,98050.87
2018-10-03T17:36:22.813Z,98067.82
2018-10-03T17:41:17.740Z,98070.30
2018-10-03T17:46:12.593Z,98065.47
2018-10-03T17:51:07.449Z,98068.30
2018-10-03T17:56:02.350Z,98083.20
2018-10-03T18:00:57.163Z,98091.06
2018-10-03T18:05:52.050Z,98093.59
2018-10-03T18:10:46.914Z,98094.63
2018-10-03T18:15:41.790Z,98091.86
2018-10-03T18:20:36.935Z,98097.45
2018-10-03T18:25:32.313Z,98104.36
2018-10-03T18:30:27.628Z,98102.34
2018-10-03T18:35:24.095Z,98103.86
2018-10-03T18:40:20.250Z,98104.93
2018-10-03T18:45:15.718Z,98100.92
2018-10-03T18:50:11.918Z,98099.20
2018-10-03T19:08:02.870Z,98103.66
2018-10-03T19:12:59.915Z,98120.56
2018-10-03T19:17:56.969Z,98124.14
2018-10-03T19:22:53.899Z,98126.52
2018-10-03T19:27:50.986Z,98127.58
2018-10-03T19:32:48.140Z,98126.92
2018-10-03T19:37:45.014Z,98122.45
2018-10-03T19:42:41.879Z,98125.84
2018-10-03T19:47:40.492Z,98127.34
2018-10-03T19:52:37.239Z,98134.23
2018-10-03T19:57:33.878Z,98134.77
2018-10-03T20:02:30.265Z,98132.56
2018-10-03T20:07:27.427Z,98133.58
2018-10-03T20:12:23.304Z,98131.63
2018-10-03T20:17:19.006Z,98131.23
2018-10-03T20:22:14.276Z,98140.55
2018-10-03T20:27:09.978Z,98140.36
2018-10-03T20:32:04.903Z,98136.89
2018-10-03T20:36:59.760Z,98134.70
2018-10-03T20:41:54.717Z,98126.83
2018-10-03T20:46:49.906Z,98128.11
2018-10-03T20:51:44.902Z,98118.18
2018-10-03T20:56:39.866Z,98110.75
2018-10-03T21:01:34.864Z,98110.73
2018-10-03T21:06:36.422Z,98114.41
2018-10-03T21:11:31.554Z,98115.14
2018-10-03T21:16:26.429Z,98114.03
2018-10-03T21:21:21.363Z,98108.14
2018-10-03T21:26:16.236Z,98100.23
2018-10-03T21:31:11.198Z,98104.64
2018-10-03T21:36:06.219Z,98104.64
2018-10-03T21:41:01.080Z,98104.74
2018-10-03T21:45:55.952Z,98096.19
2018-10-03T21:50:50.822Z,98104.51
2018-10-03T21:55:45.985Z,98108.39
2018-10-03T22:00:45.951Z,98109.95
2018-10-03T22:05:40.797Z,98111.20
2018-10-03T22:10:36.032Z,98117.52
2018-10-03T22:15:30.992Z,98122.62
2018-10-03T22:20:25.832Z,98111.42
2018-10-03T22:25:20.610Z,98112.38
2018-10-03T22:30:15.433Z,98114.62
2018-10-03T22:35:10.253Z,98112.63
2018-10-03T22:40:05.138Z,98109.18
2018-10-03T22:44:59.963Z,98109.25
2018-10-03T22:49:55.331Z,98099.61
2018-10-03T22:54:50.233Z,98102.25
2018-10-03T22:59:45.117Z,98107.75
2018-10-03T23:04:39.913Z,98113.21
2018-10-03T23:09:34.705Z,98113.22
2018-10-03T23:14:29.500Z,98114.98
2018-10-03T23:19:24.352Z,98117.16
2018-10-03T23:24:19.193Z,98114.06
2018-10-03T23:29:14.382Z,98122.36
2018-10-03T23:34:09.862Z,98124.33
2018-10-03T23:39:08.004Z,98125.52
2018-10-03T23:44:02.899Z,98121.17
2018-10-03T23:48:57.717Z,98123.54
2018-10-03T23:53:52.545Z,98125.11
2018-10-03T23:58:47.369Z,98129.16
